sensor_id;sensor_type;location;lat;lon;timestamp;pressure;altitude;pressure_sealevel;temperature;humidity
15489;BME280;7846;48.830;9.116;2022-09-03T00:01:38;97425.78;;;24.19;42.15
15489;BME280;7846;48.830;9.116;2022-09-03T00:04:11;97427.91;;;24.17;42.31
15489;BME280;7846;48.830;9.116;2022-09-03T00:06:44;97427.41;;;24.20;41.90
15489;BME280;7846;48.830;9.116;2022-09-03T00:09:22;97426.28;;;24.16;42.10
15489;BME280;7846;48.830;9.116;2022-09-03T00:12:01;97420.72;;;24.23;42.03
15489;BME280;7846;48.830;9.116;2022-09-03T00:14:51;97419.44;;;24.30;42.40
15489;BME280;7846;48.830;9.116;2022-09-03T00:17:21;97420.91;;;24.43;41.98
15489;BME280;7846;48.830;9.116;2022-09-03T00:19:55;97412.03;;;24.43;41.68
15489;BME280;7846;48.830;9.116;2022-09-03T00:22:32;97421.19;;;24.42;41.50
15489;BME280;7846;48.830;9.116;2022-09-03T00:25:03;97424.13;;;24.40;41.96
15489;BME280;7846;48.830;9.116;2022-09-03T00:27:32;97419.44;;;24.30;42.10
15489;BME280;7846;48.830;9.116;2022-09-03T00:30:05;97425.34;;;24.32;41.93
15489;BME280;7846;48.830;9.116;2022-09-03T00:32:57;97422.50;;;24.39;41.80
15489;BME280;7846;48.830;9.116;2022-09-03T00:35:34;97417.38;;;24.10;42.89
15489;BME280;7846;48.830;9.116;2022-09-03T00:38:02;97414.41;;;23.85;42.99
15489;BME280;7846;48.830;9.116;2022-09-03T00:43:11;97421.22;;;23.49;44.17
15489;BME280;7846;48.830;9.116;2022-09-03T00:46:01;97416.16;;;23.52;44.02
15489;BME280;7846;48.830;9.116;2022-09-03T00:51:39;97420.75;;;23.74;43.82
15489;BME280;7846;48.830;9.116;2022-09-03T00:59:43;97416.13;;;24.23;42.50
15489;BME280;7846;48.830;9.116;2022-09-03T01:02:29;97414.59;;;24.32;43.03
15489;BME280;7846;48.830;9.116;2022-09-03T01:10:56;97423.69;;;24.26;42.93
15489;BME280;7846;48.830;9.116;2022-09-03T01:13:39;97424.16;;;24.18;43.41
15489;BME280;7846;48.830;9.116;2022-09-03T01:16:23;97420.13;;;24.21;43.20
15489;BME280;7846;48.830;9.116;2022-09-03T01:19:01;97420.22;;;24.26;43.19
15489;BME280;7846;48.830;9.116;2022-09-03T01:24:45;97420.03;;;24.37;42.55
15489;BME280;7846;48.830;9.116;2022-09-03T01:30:10;97421.91;;;24.37;43.05
15489;BME280;7846;48.830;9.116;2022-09-03T01:35:33;97410.03;;;24.33;43.30
15489;BME280;7846;48.830;9.116;2022-09-03T01:47:20;97412.84;;;24.43;43.14
15489;BME280;7846;48.830;9.116;2022-09-03T01:55:50;97411.00;;;24.49;42.97
15489;BME280;7846;48.830;9.116;2022-09-03T01:58:34;97418.59;;;24.57;42.91
15489;BME280;7846;48.830;9.116;2022-09-03T02:01:10;97417.81;;;24.56;43.45
15489;BME280;7846;48.830;9.116;2022-09-03T02:03:40;97421.50;;;24.50;43.61
15489;BME280;7846;48.830;9.116;2022-09-03T02:06:08;97420.97;;;24.48;43.29
15489;BME280;7846;48.830;9.116;2022-09-03T02:08:34;97417.41;;;24.43;43.30
15489;BME280;7846;48.830;9.116;2022-09-03T02:11:00;97424.47;;;24.49;43.34
15489;BME280;7846;48.830;9.116;2022-09-03T02:13:49;97424.19;;;24.50;42.88
15489;BME280;7846;48.830;9.116;2022-09-03T02:16:21;97427.97;;;24.49;43.10
15489;BME280;7846;48.830;9.116;2022-09-03T02:18:57;97434.63;;;24.42;42.78
15489;BME280;7846;48.830;9.116;2022-09-03T02:21:25;97433.56;;;24.43;42.54
15489;BME280;7846;48.830;9.116;2022-09-03T02:23:51;97438.22;;;24.25;42.64
15489;BME280;7846;48.830;9.116;2022-09-03T02:26:21;97433.66;;;24.26;43.13
15489;BME280;7846;48.830;9.116;2022-09-03T02:28:48;97441.25;;;24.61;42.81
15489;BME280;7846;48.830;9.116;2022-09-03T02:31:14;97439.00;;;24.48;43.13
15489;BME280;7846;48.830;9.116;2022-09-03T02:33:42;97434.47;;;24.26;43.82
15489;BME280;7846;48.830;9.116;2022-09-03T02:36:11;97430.25;;;24.62;43.21
15489;BME280;7846;48.830;9.116;2022-09-03T02:38:41;97435.97;;;24.17;43.41
15489;BME280;7846;48.830;9.116;2022-09-03T02:41:06;97428.56;;;24.02;43.81
15489;BME280;7846;48.830;9.116;2022-09-03T02:43:41;97434.50;;;24.04;43.90
15489;BME280;7846;48.830;9.116;2022-09-03T02:46:09;97427.75;;;24.02;44.01
15489;BME280;7846;48.830;9.116;2022-09-03T02:48:40;97416.34;;;23.89;44.34
15489;BME280;7846;48.830;9.116;2022-09-03T02:51:06;97416.22;;;23.79;43.92
15489;BME280;7846;48.830;9.116;2022-09-03T02:53:31;97424.66;;;23.66;44.32
15489;BME280;7846;48.830;9.116;2022-09-03T02:55:58;97414.34;;;23.80;44.17
15489;BME280;7846;48.830;9.116;2022-09-03T02:58:24;97423.97;;;23.76;44.10
15489;BME280;7846;48.830;9.116;2022-09-03T03:00:51;97419.53;;;23.64;44.25
15489;BME280;7846;48.830;9.116;2022-09-03T03:03:17;97423.00;;;23.65;44.62
15489;BME280;7846;48.830;9.116;2022-09-03T03:05:56;97425.31;;;23.73;44.40
15489;BME280;7846;48.830;9.116;2022-09-03T03:08:24;97427.44;;;23.71;44.69
15489;BME280;7846;48.830;9.116;2022-09-03T03:10:52;97430.28;;;23.64;44.77
15489;BME280;7846;48.830;9.116;2022-09-03T03:13:18;97424.75;;;23.54;44.90
15489;BME280;7846;48.830;9.116;2022-09-03T03:15:44;97423.00;;;23.65;44.71
15489;BME280;7846;48.830;9.116;2022-09-03T03:18:11;97425.59;;;23.55;44.55
15489;BME280;7846;48.830;9.116;2022-09-03T03:20:38;97432.00;;;23.71;44.60
15489;BME280;7846;48.830;9.116;2022-09-03T03:23:04;97431.50;;;23.74;44.58
15489;BME280;7846;48.830;9.116;2022-09-03T03:25:33;97432.94;;;23.81;44.37
15489;BME280;7846;48.830;9.116;2022-09-03T03:27:59;97439.47;;;23.69;44.71
15489;BME280;7846;48.830;9.116;2022-09-03T03:30:25;97434.41;;;23.72;44.71
15489;BME280;7846;48.830;9.116;2022-09-03T03:32:52;97435.63;;;23.81;44.86
15489;BME280;7846;48.830;9.116;2022-09-03T03:35:18;97438.22;;;23.76;45.08
15489;BME280;7846;48.830;9.116;2022-09-03T03:37:44;97436.59;;;23.75;44.88
15489;BME280;7846;48.830;9.116;2022-09-03T03:40:10;97440.59;;;23.73;44.80
15489;BME280;7846;48.830;9.116;2022-09-03T03:42:36;97439.47;;;23.69;45.17
15489;BME280;7846;48.830;9.116;2022-09-03T03:45:02;97437.06;;;23.67;45.37
15489;BME280;7846;48.830;9.116;2022-09-03T03:47:28;97429.72;;;23.62;45.50
15489;BME280;7846;48.830;9.116;2022-09-03T03:49:56;97439.91;;;23.60;45.61
15489;BME280;7846;48.830;9.116;2022-09-03T03:52:22;97445.13;;;23.50;45.75
15489;BME280;7846;48.830;9.116;2022-09-03T03:54:47;97442.44;;;23.50;46.28
15489;BME280;7846;48.830;9.116;2022-09-03T03:57:14;97447.47;;;23.41;46.34
15489;BME280;7846;48.830;9.116;2022-09-03T03:59:40;97443.16;;;23.40;46.62
15489;BME280;7846;48.830;9.116;2022-09-03T04:02:05;97448.84;;;23.44;46.46
15489;BME280;7846;48.830;9.116;2022-09-03T04:04:31;97442.66;;;23.43;46.60
15489;BME280;7846;48.830;9.116;2022-09-03T04:06:56;97439.13;;;23.43;46.80
15489;BME280;7846;48.830;9.116;2022-09-03T04:09:22;97448.44;;;23.35;46.95
15489;BME280;7846;48.830;9.116;2022-09-03T04:11:47;97436.97;;;23.40;46.60
15489;BME280;7846;48.830;9.116;2022-09-03T04:14:12;97432.72;;;23.44;46.50
15489;BME280;7846;48.830;9.116;2022-09-03T04:16:38;97435.09;;;23.40;46.73
15489;BME280;7846;48.830;9.116;2022-09-03T04:19:04;97441.00;;;23.42;46.69
15489;BME280;7846;48.830;9.116;2022-09-03T04:21:30;97441.97;;;23.53;46.60
15489;BME280;7846;48.830;9.116;2022-09-03T04:23:56;97449.56;;;23.61;46.48
15489;BME280;7846;48.830;9.116;2022-09-03T04:26:29;97438.75;;;23.73;46.10
15489;BME280;7846;48.830;9.116;2022-09-03T04:28:56;97438.69;;;23.68;46.14
15489;BME280;7846;48.830;9.116;2022-09-03T04:31:21;97442.63;;;23.65;46.34
15489;BME280;7846;48.830;9.116;2022-09-03T04:33:47;97443.28;;;23.73;46.06
15489;BME280;7846;48.830;9.116;2022-09-03T04:36:15;97446.06;;;23.78;46.29
15489;BME280;7846;48.830;9.116;2022-09-03T04:38:43;97440.91;;;23.76;46.20
15489;BME280;7846;48.830;9.116;2022-09-03T04:41:11;97442.03;;;23.80;46.09
15489;BME280;7846;48.830;9.116;2022-09-03T04:43:37;97441.44;;;23.73;46.07
15489;BME280;7846;48.830;9.116;2022-09-03T04:46:05;97446.59;;;23.80;46.06
15489;BME280;7846;48.830;9.116;2022-09-03T04:48:32;97444.19;;;23.78;45.88
15489;BME280;7846;48.830;9.116;2022-09-03T04:51:02;97441.31;;;23.85;46.18
15489;BME280;7846;48.830;9.116;2022-09-03T04:53:35;97444.72;;;23.80;46.03
15489;BME280;7846;48.830;9.116;2022-09-03T04:56:01;97449.25;;;23.75;46.25
15489;BME280;7846;48.830;9.116;2022-09-03T04:58:27;97443.38;;;23.78;46.05
15489;BME280;7846;48.830;9.116;2022-09-03T05:00:52;97452.59;;;23.87;46.12
15489;BME280;7846;48.830;9.116;2022-09-03T05:03:18;97451.34;;;23.95;46.13
15489;BME280;7846;48.830;9.116;2022-09-03T05:05:55;97440.50;;;24.11;46.08
15489;BME280;7846;48.830;9.116;2022-09-03T05:08:21;97443.44;;;24.10;46.14
15489;BME280;7846;48.830;9.116;2022-09-03T05:10:47;97450.47;;;24.11;46.10
15489;BME280;7846;48.830;9.116;2022-09-03T05:13:12;97452.38;;;24.15;46.03
15489;BME280;7846;48.830;9.116;2022-09-03T05:15:39;97444.03;;;24.17;46.00
15489;BME280;7846;48.830;9.116;2022-09-03T05:18:06;97448.63;;;24.17;46.91
15489;BME280;7846;48.830;9.116;2022-09-03T05:20:31;97447.25;;;24.14;47.10
15489;BME280;7846;48.830;9.116;2022-09-03T05:23:01;97453.84;;;24.28;47.50
15489;BME280;7846;48.830;9.116;2022-09-03T05:25:28;97453.16;;;24.11;47.90
15489;BME280;7846;48.830;9.116;2022-09-03T05:27:57;97450.53;;;24.21;48.01
15489;BME280;7846;48.830;9.116;2022-09-03T05:30:22;97452.41;;;24.21;47.96
15489;BME280;7846;48.830;9.116;2022-09-03T05:32:48;97454.09;;;24.27;47.74
15489;BME280;7846;48.830;9.116;2022-09-03T05:35:14;97452.19;;;24.22;47.71
15489;BME280;7846;48.830;9.116;2022-09-03T05:37:40;97445.63;;;24.13;48.63
15489;BME280;7846;48.830;9.116;2022-09-03T05:40:06;97450.19;;;24.12;48.72
15489;BME280;7846;48.830;9.116;2022-09-03T05:42:32;97460.72;;;24.14;48.41
15489;BME280;7846;48.830;9.116;2022-09-03T05:45:09;97459.66;;;24.42;48.25
15489;BME280;7846;48.830;9.116;2022-09-03T05:47:36;97454.59;;;24.51;48.38
15489;BME280;7846;48.830;9.116;2022-09-03T05:50:02;97456.38;;;24.67;47.81
15489;BME280;7846;48.830;9.116;2022-09-03T05:52:27;97458.31;;;24.77;47.63
15489;BME280;7846;48.830;9.116;2022-09-03T05:54:54;97458.09;;;24.78;47.56
15489;BME280;7846;48.830;9.116;2022-09-03T05:57:20;97462.59;;;24.73;47.44
15489;BME280;7846;48.830;9.116;2022-09-03T05:59:45;97468.59;;;24.80;47.23
15489;BME280;7846;48.830;9.116;2022-09-03T06:02:11;97472.06;;;24.75;47.62
15489;BME280;7846;48.830;9.116;2022-09-03T06:04:36;97485.91;;;24.89;47.81
15489;BME280;7846;48.830;9.116;2022-09-03T06:07:02;97480.34;;;25.01;47.25
15489;BME280;7846;48.830;9.116;2022-09-03T06:09:28;97474.66;;;25.02;47.12
15489;BME280;7846;48.830;9.116;2022-09-03T06:11:53;97476.97;;;25.16;46.90
15489;BME280;7846;48.830;9.116;2022-09-03T06:14:20;97473.81;;;25.29;46.76
15489;BME280;7846;48.830;9.116;2022-09-03T06:16:47;97474.66;;;25.40;47.14
15489;BME280;7846;48.830;9.116;2022-09-03T06:19:14;97480.38;;;25.48;46.45
15489;BME280;7846;48.830;9.116;2022-09-03T06:21:41;97472.59;;;25.52;46.57
15489;BME280;7846;48.830;9.116;2022-09-03T06:24:08;97469.38;;;25.55;46.06
15489;BME280;7846;48.830;9.116;2022-09-03T06:26:34;97472.13;;;25.70;45.83
15489;BME280;7846;48.830;9.116;2022-09-03T06:28:59;97487.09;;;25.93;45.53
15489;BME280;7846;48.830;9.116;2022-09-03T06:31:25;97477.97;;;26.10;45.33
15489;BME280;7846;48.830;9.116;2022-09-03T06:33:51;97482.03;;;26.17;44.84
15489;BME280;7846;48.830;9.116;2022-09-03T06:36:18;97485.81;;;26.21;44.19
15489;BME280;7846;48.830;9.116;2022-09-03T06:38:44;97486.91;;;26.30;44.35
15489;BME280;7846;48.830;9.116;2022-09-03T06:41:18;97487.16;;;26.24;44.08
15489;BME280;7846;48.830;9.116;2022-09-03T06:43:50;97485.03;;;26.36;43.94
15489;BME280;7846;48.830;9.116;2022-09-03T06:48:36;97488.06;;;26.50;43.94
15489;BME280;7846;48.830;9.116;2022-09-03T06:51:05;97486.72;;;26.52;44.44
15489;BME280;7846;48.830;9.116;2022-09-03T06:53:34;97485.38;;;26.75;43.22
15489;BME280;7846;48.830;9.116;2022-09-03T06:56:02;97490.53;;;26.67;43.15
15489;BME280;7846;48.830;9.116;2022-09-03T06:58:30;97478.91;;;26.56;43.33
15489;BME280;7846;48.830;9.116;2022-09-03T07:01:07;97489.69;;;26.92;43.00
15489;BME280;7846;48.830;9.116;2022-09-03T07:03:35;97498.06;;;27.00;43.22
15489;BME280;7846;48.830;9.116;2022-09-03T07:06:07;97491.84;;;27.10;43.27
15489;BME280;7846;48.830;9.116;2022-09-03T07:08:33;97486.47;;;27.00;42.81
15489;BME280;7846;48.830;9.116;2022-09-03T07:11:01;97485.09;;;26.87;43.25
15489;BME280;7846;48.830;9.116;2022-09-03T07:13:38;97485.38;;;27.16;43.04
15489;BME280;7846;48.830;9.116;2022-09-03T07:16:10;97485.91;;;27.34;42.89
15489;BME280;7846;48.830;9.116;2022-09-03T07:18:36;97483.16;;;27.49;42.18
15489;BME280;7846;48.830;9.116;2022-09-03T07:21:04;97495.84;;;27.54;42.22
15489;BME280;7846;48.830;9.116;2022-09-03T07:23:31;97496.03;;;27.88;41.33
15489;BME280;7846;48.830;9.116;2022-09-03T07:25:59;97498.41;;;27.99;41.90
15489;BME280;7846;48.830;9.116;2022-09-03T07:28:25;97502.75;;;27.95;42.02
15489;BME280;7846;48.830;9.116;2022-09-03T07:30:52;97501.56;;;28.17;41.64
15489;BME280;7846;48.830;9.116;2022-09-03T07:33:18;97501.22;;;28.34;41.56
15489;BME280;7846;48.830;9.116;2022-09-03T07:35:45;97496.59;;;28.39;41.88
15489;BME280;7846;48.830;9.116;2022-09-03T07:38:11;97500.03;;;28.01;42.13
15489;BME280;7846;48.830;9.116;2022-09-03T07:40:37;97504.63;;;28.05;41.74
15489;BME280;7846;48.830;9.116;2022-09-03T07:43:04;97501.22;;;27.74;42.43
15489;BME280;7846;48.830;9.116;2022-09-03T07:45:30;97498.34;;;27.04;44.07
15489;BME280;7846;48.830;9.116;2022-09-03T07:47:57;97503.47;;;26.95;44.36
15489;BME280;7846;48.830;9.116;2022-09-03T07:50:22;97503.75;;;26.84;45.06
15489;BME280;7846;48.830;9.116;2022-09-03T07:52:48;97512.78;;;27.95;42.79
15489;BME280;7846;48.830;9.116;2022-09-03T07:55:13;97509.94;;;28.70;42.25
15489;BME280;7846;48.830;9.116;2022-09-03T07:57:39;97513.66;;;28.40;41.00
15489;BME280;7846;48.830;9.116;2022-09-03T08:00:06;97515.91;;;28.17;42.73
15489;BME280;7846;48.830;9.116;2022-09-03T08:02:36;97514.41;;;28.90;41.54
15489;BME280;7846;48.830;9.116;2022-09-03T08:05:02;97513.63;;;29.48;40.51
15489;BME280;7846;48.830;9.116;2022-09-03T08:07:28;97518.81;;;29.97;40.20
15489;BME280;7846;48.830;9.116;2022-09-03T08:09:55;97525.78;;;29.79;41.22
15489;BME280;7846;48.830;9.116;2022-09-03T08:12:20;97525.94;;;29.88;40.56
15489;BME280;7846;48.830;9.116;2022-09-03T08:14:46;97527.31;;;29.03;41.67
15489;BME280;7846;48.830;9.116;2022-09-03T08:17:12;97526.59;;;29.27;41.34
15489;BME280;7846;48.830;9.116;2022-09-03T08:19:38;97524.16;;;30.02;40.51
15489;BME280;7846;48.830;9.116;2022-09-03T08:22:06;97539.53;;;29.35;40.59
15489;BME280;7846;48.830;9.116;2022-09-03T08:24:32;97531.00;;;28.29;42.59
15489;BME280;7846;48.830;9.116;2022-09-03T08:26:58;97524.47;;;27.85;43.52
15489;BME280;7846;48.830;9.116;2022-09-03T08:29:23;97526.97;;;27.46;44.61
15489;BME280;7846;48.830;9.116;2022-09-03T08:31:49;97533.66;;;27.69;44.41
15489;BME280;7846;48.830;9.116;2022-09-03T08:34:14;97524.19;;;27.71;44.70
15489;BME280;7846;48.830;9.116;2022-09-03T08:36:41;97531.59;;;26.89;47.70
15489;BME280;7846;48.830;9.116;2022-09-03T08:39:08;97529.84;;;27.90;45.71
15489;BME280;7846;48.830;9.116;2022-09-03T08:44:42;97530.25;;;27.27;46.78
15489;BME280;7846;48.830;9.116;2022-09-03T08:47:22;97533.47;;;26.89;48.99
15489;BME280;7846;48.830;9.116;2022-09-03T08:49:55;97530.25;;;27.17;48.76
15489;BME280;7846;48.830;9.116;2022-09-03T08:52:32;97541.63;;;26.05;50.63
15489;BME280;7846;48.830;9.116;2022-09-03T08:57:45;97544.34;;;26.16;50.96
15489;BME280;7846;48.830;9.116;2022-09-03T09:00:11;97549.94;;;26.87;48.31
15489;BME280;7846;48.830;9.116;2022-09-03T09:02:57;97557.63;;;26.22;48.94
15489;BME280;7846;48.830;9.116;2022-09-03T09:05:53;97554.34;;;26.15;49.00
15489;BME280;7846;48.830;9.116;2022-09-03T09:08:38;97555.56;;;26.50;47.67
15489;BME280;7846;48.830;9.116;2022-09-03T09:11:19;97566.19;;;27.33;46.57
15489;BME280;7846;48.830;9.116;2022-09-03T09:22:11;97576.47;;;27.16;46.47
15489;BME280;7846;48.830;9.116;2022-09-03T09:24:44;97572.03;;;26.53;47.20
15489;BME280;7846;48.830;9.116;2022-09-03T09:27:13;97563.47;;;27.43;45.33
15489;BME280;7846;48.830;9.116;2022-09-03T09:29:42;97572.63;;;27.83;44.25
15489;BME280;7846;48.830;9.116;2022-09-03T09:32:11;97576.69;;;26.94;45.52
15489;BME280;7846;48.830;9.116;2022-09-03T09:34:38;97576.16;;;27.53;44.63
15489;BME280;7846;48.830;9.116;2022-09-03T09:37:09;97570.16;;;26.69;45.70
15489;BME280;7846;48.830;9.116;2022-09-03T09:39:35;97568.28;;;27.82;43.89
15489;BME280;7846;48.830;9.116;2022-09-03T09:42:05;97564.56;;;27.32;44.67
15489;BME280;7846;48.830;9.116;2022-09-03T09:44:38;97562.38;;;27.60;43.88
15489;BME280;7846;48.830;9.116;2022-09-03T09:47:09;97557.78;;;27.60;44.74
15489;BME280;7846;48.830;9.116;2022-09-03T09:49:54;97555.59;;;27.62;44.31
15489;BME280;7846;48.830;9.116;2022-09-03T09:52:20;97556.59;;;28.02;43.36
15489;BME280;7846;48.830;9.116;2022-09-03T09:54:51;97550.72;;;26.52;45.97
15489;BME280;7846;48.830;9.116;2022-09-03T09:57:23;97546.75;;;27.26;44.71
15489;BME280;7846;48.830;9.116;2022-09-03T09:59:49;97558.44;;;28.12;43.14
15489;BME280;7846;48.830;9.116;2022-09-03T10:02:27;97561.16;;;28.07;43.02
15489;BME280;7846;48.830;9.116;2022-09-03T10:05:01;97558.84;;;27.03;44.83
15489;BME280;7846;48.830;9.116;2022-09-03T10:07:35;97565.72;;;26.27;46.17
15489;BME280;7846;48.830;9.116;2022-09-03T10:10:16;97561.56;;;26.93;45.03
15489;BME280;7846;48.830;9.116;2022-09-03T10:12:48;97557.06;;;26.20;46.63
15489;BME280;7846;48.830;9.116;2022-09-03T10:15:24;97562.41;;;27.24;44.81
15489;BME280;7846;48.830;9.116;2022-09-03T10:20:43;97556.16;;;30.05;40.04
15489;BME280;7846;48.830;9.116;2022-09-03T10:23:19;97561.53;;;30.53;38.97
15489;BME280;7846;48.830;9.116;2022-09-03T10:28:25;97563.16;;;30.92;37.33
15489;BME280;7846;48.830;9.116;2022-09-03T10:33:23;97569.19;;;31.41;38.50
15489;BME280;7846;48.830;9.116;2022-09-03T10:35:52;97567.06;;;32.25;36.36
15489;BME280;7846;48.830;9.116;2022-09-03T10:38:33;97568.88;;;32.44;36.03
15489;BME280;7846;48.830;9.116;2022-09-03T10:41:25;97568.91;;;32.80;34.90
15489;BME280;7846;48.830;9.116;2022-09-03T10:49:16;97561.44;;;31.48;36.19
15489;BME280;7846;48.830;9.116;2022-09-03T11:00:14;97545.16;;;32.44;36.53
15489;BME280;7846;48.830;9.116;2022-09-03T11:05:19;97543.56;;;33.47;35.08
15489;BME280;7846;48.830;9.116;2022-09-03T11:07:52;97540.53;;;33.04;35.37
15489;BME280;7846;48.830;9.116;2022-09-03T11:10:31;97532.06;;;33.59;34.43
15489;BME280;7846;48.830;9.116;2022-09-03T11:13:07;97524.81;;;33.00;35.38
15489;BME280;7846;48.830;9.116;2022-09-03T11:15:40;97518.06;;;32.62;34.85
15489;BME280;7846;48.830;9.116;2022-09-03T11:18:21;97516.06;;;33.12;34.69
15489;BME280;7846;48.830;9.116;2022-09-03T11:20:50;97508.97;;;32.16;35.75
15489;BME280;7846;48.830;9.116;2022-09-03T11:23:20;97519.63;;;33.21;35.70
15489;BME280;7846;48.830;9.116;2022-09-03T11:25:56;97512.13;;;33.89;35.02
15489;BME280;7846;48.830;9.116;2022-09-03T11:31:21;97510.13;;;33.81;33.97
15489;BME280;7846;48.830;9.116;2022-09-03T11:33:57;97508.50;;;33.71;34.11
15489;BME280;7846;48.830;9.116;2022-09-03T11:36:36;97511.25;;;33.18;35.15
15489;BME280;7846;48.830;9.116;2022-09-03T11:39:22;97509.16;;;33.15;34.57
15489;BME280;7846;48.830;9.116;2022-09-03T11:41:58;97499.22;;;32.74;34.89
15489;BME280;7846;48.830;9.116;2022-09-03T11:44:43;97502.53;;;31.98;36.97
15489;BME280;7846;48.830;9.116;2022-09-03T11:47:24;97487.50;;;32.51;36.21
15489;BME280;7846;48.830;9.116;2022-09-03T11:52:49;97492.06;;;33.23;35.90
15489;BME280;7846;48.830;9.116;2022-09-03T11:55:31;97502.66;;;33.02;36.22
15489;BME280;7846;48.830;9.116;2022-09-03T11:58:32;97496.19;;;33.20;35.54
15489;BME280;7846;48.830;9.116;2022-09-03T12:01:01;97505.84;;;32.95;35.79
15489;BME280;7846;48.830;9.116;2022-09-03T12:03:35;97519.19;;;32.61;35.68
15489;BME280;7846;48.830;9.116;2022-09-03T12:06:19;97535.22;;;31.98;36.48
15489;BME280;7846;48.830;9.116;2022-09-03T12:09:14;97531.84;;;31.74;37.33
15489;BME280;7846;48.830;9.116;2022-09-03T12:14:24;97505.53;;;31.09;38.62
15489;BME280;7846;48.830;9.116;2022-09-03T12:19:39;97516.50;;;30.85;39.41
15489;BME280;7846;48.830;9.116;2022-09-03T12:22:11;97521.03;;;30.76;39.50
15489;BME280;7846;48.830;9.116;2022-09-03T12:24:38;97529.47;;;30.12;40.39
15489;BME280;7846;48.830;9.116;2022-09-03T12:27:03;97527.91;;;30.30;40.27
15489;BME280;7846;48.830;9.116;2022-09-03T12:29:30;97525.50;;;29.81;40.71
15489;BME280;7846;48.830;9.116;2022-09-03T12:32:06;97538.38;;;29.94;40.52
15489;BME280;7846;48.830;9.116;2022-09-03T12:34:31;97538.16;;;29.67;42.47
15489;BME280;7846;48.830;9.116;2022-09-03T12:36:57;97545.34;;;29.76;42.83
15489;BME280;7846;48.830;9.116;2022-09-03T12:39:26;97550.03;;;28.13;44.55
15489;BME280;7846;48.830;9.116;2022-09-03T12:47:05;97564.25;;;23.73;61.92
15489;BME280;7846;48.830;9.116;2022-09-03T12:49:40;97568.34;;;23.41;63.86
15489;BME280;7846;48.830;9.116;2022-09-03T12:52:16;97560.53;;;23.23;64.28
15489;BME280;7846;48.830;9.116;2022-09-03T12:57:48;97555.00;;;23.30;64.96
15489;BME280;7846;48.830;9.116;2022-09-03T13:00:18;97555.63;;;22.69;66.35
15489;BME280;7846;48.830;9.116;2022-09-03T13:02:59;97543.22;;;22.97;66.11
15489;BME280;7846;48.830;9.116;2022-09-03T13:05:45;97545.25;;;23.24;66.33
15489;BME280;7846;48.830;9.116;2022-09-03T13:08:18;97545.75;;;24.20;65.19
15489;BME280;7846;48.830;9.116;2022-09-03T13:10:52;97540.47;;;23.64;64.97
15489;BME280;7846;48.830;9.116;2022-09-03T13:13:26;97556.53;;;24.69;64.95
15489;BME280;7846;48.830;9.116;2022-09-03T13:19:28;97549.16;;;25.56;60.90
15489;BME280;7846;48.830;9.116;2022-09-03T13:30:14;97560.75;;;27.02;56.60
15489;BME280;7846;48.830;9.116;2022-09-03T13:32:58;97579.31;;;28.06;52.27
15489;BME280;7846;48.830;9.116;2022-09-03T13:35:39;97575.34;;;30.38;48.26
15489;BME280;7846;48.830;9.116;2022-09-03T13:41:08;97592.91;;;31.87;44.94
15489;BME280;7846;48.830;9.116;2022-09-03T13:43:55;97595.56;;;31.73;44.96
15489;BME280;7846;48.830;9.116;2022-09-03T13:46:29;97580.94;;;30.84;44.74
15489;BME280;7846;48.830;9.116;2022-09-03T13:52:07;97566.59;;;28.02;50.30
15489;BME280;7846;48.830;9.116;2022-09-03T13:54:44;97560.91;;;26.45;53.91
15489;BME280;7846;48.830;9.116;2022-09-03T13:57:31;97551.91;;;28.23;52.36
15489;BME280;7846;48.830;9.116;2022-09-03T14:00:11;97550.34;;;29.06;49.92
15489;BME280;7846;48.830;9.116;2022-09-03T14:05:37;97545.59;;;29.80;48.99
15489;BME280;7846;48.830;9.116;2022-09-03T14:08:22;97554.91;;;29.45;48.37
15489;BME280;7846;48.830;9.116;2022-09-03T14:13:44;97549.00;;;29.37;48.44
15489;BME280;7846;48.830;9.116;2022-09-03T14:16:56;97554.53;;;31.69;45.46
15489;BME280;7846;48.830;9.116;2022-09-03T14:25:02;97554.19;;;29.87;46.97
15489;BME280;7846;48.830;9.116;2022-09-03T14:27:31;97555.84;;;30.93;47.19
15489;BME280;7846;48.830;9.116;2022-09-03T14:30:05;97556.44;;;30.90;46.52
15489;BME280;7846;48.830;9.116;2022-09-03T14:33:22;97560.28;;;31.02;46.72
15489;BME280;7846;48.830;9.116;2022-09-03T14:38:29;97553.69;;;31.08;46.50
15489;BME280;7846;48.830;9.116;2022-09-03T14:43:46;97561.53;;;30.34;47.20
15489;BME280;7846;48.830;9.116;2022-09-03T14:49:17;97569.16;;;30.08;48.38
15489;BME280;7846;48.830;9.116;2022-09-03T15:00:13;97562.03;;;29.88;49.26
15489;BME280;7846;48.830;9.116;2022-09-03T15:03:15;97555.66;;;30.65;47.97
15489;BME280;7846;48.830;9.116;2022-09-03T15:06:01;97556.00;;;30.21;48.12
15489;BME280;7846;48.830;9.116;2022-09-03T15:08:55;97563.50;;;34.27;40.36
15489;BME280;7846;48.830;9.116;2022-09-03T15:11:29;97581.38;;;33.93;41.04
15489;BME280;7846;48.830;9.116;2022-09-03T15:17:15;97591.59;;;32.89;40.27
15489;BME280;7846;48.830;9.116;2022-09-03T15:19:57;97583.06;;;31.06;46.01
15489;BME280;7846;48.830;9.116;2022-09-03T15:28:10;97585.00;;;33.27;40.22
15489;BME280;7846;48.830;9.116;2022-09-03T15:30:50;97574.59;;;31.60;43.45
15489;BME280;7846;48.830;9.116;2022-09-03T15:33:35;97575.88;;;32.09;43.10
15489;BME280;7846;48.830;9.116;2022-09-03T15:36:12;97572.47;;;31.24;44.38
15489;BME280;7846;48.830;9.116;2022-09-03T15:43:59;97569.97;;;32.29;41.45
15489;BME280;7846;48.830;9.116;2022-09-03T15:50:13;97564.66;;;29.40;46.99
15489;BME280;7846;48.830;9.116;2022-09-03T15:52:30;97577.28;;;29.84;46.61
15489;BME280;7846;48.830;9.116;2022-09-03T16:00:18;97572.81;;;28.67;50.44
15489;BME280;7846;48.830;9.116;2022-09-03T16:02:57;97567.25;;;27.32;53.28
15489;BME280;7846;48.830;9.116;2022-09-03T16:05:37;97571.06;;;28.37;51.51
15489;BME280;7846;48.830;9.116;2022-09-03T16:10:58;97568.34;;;30.32;46.52
15489;BME280;7846;48.830;9.116;2022-09-03T16:19:22;97578.22;;;29.75;47.52
15489;BME280;7846;48.830;9.116;2022-09-03T16:24:50;97569.31;;;29.69;48.53
15489;BME280;7846;48.830;9.116;2022-09-03T16:27:27;97579.00;;;30.47;47.17
15489;BME280;7846;48.830;9.116;2022-09-03T16:30:10;97570.84;;;29.17;48.84
15489;BME280;7846;48.830;9.116;2022-09-03T16:35:30;97564.75;;;30.12;46.99
15489;BME280;7846;48.830;9.116;2022-09-03T16:46:30;97581.59;;;32.21;44.54